createdAt,value
2022-11-14T00:00:35.507Z,8.17
2022-11-14T00:04:09.745Z,7.97
2022-11-14T00:09:42.902Z,9.60
2022-11-14T00:13:47.490Z,9.53
2022-11-14T00:21:35.110Z,10.03
2022-11-14T00:24:02.846Z,10.80
2022-11-14T00:29:50.378Z,11.50
2022-11-14T00:32:18.245Z,11.03
2022-11-14T00:34:46.033Z,12.17
2022-11-14T00:39:05.423Z,12.80
2022-11-14T00:46:26.155Z,12.13
2022-11-14T00:50:00.890Z,14.43
2022-11-14T01:01:41.295Z,21.05
2022-11-14T01:42:42.535Z,18.67
2022-11-14T02:17:32.962Z,20.43
2022-11-14T03:09:48.639Z,22.80
2022-11-14T03:48:22.198Z,24.17
2022-11-14T03:58:52.004Z,20.67
2022-11-14T04:01:19.780Z,17.87
2022-11-14T04:03:49.440Z,19.37
2022-11-14T04:06:17.557Z,17.03
2022-11-14T04:08:48.380Z,17.97
2022-11-14T04:11:16.135Z,19.10
2022-11-14T04:13:44.262Z,19.07
2022-11-14T04:16:13.384Z,18.33
2022-11-14T04:18:44.827Z,17.13
2022-11-14T04:21:15.584Z,17.37
2022-11-14T04:23:43.458Z,17.43
2022-11-14T04:26:11.207Z,19.27
2022-11-14T04:28:38.930Z,18.10
2022-11-14T04:31:06.829Z,17.63
2022-11-14T04:33:39.008Z,18.30
2022-11-14T04:36:12.120Z,18.27
2022-11-14T04:38:39.924Z,16.47
2022-11-14T04:43:24.468Z,16.90
2022-11-14T04:45:54.383Z,16.00
2022-11-14T04:48:22.171Z,15.17
2022-11-14T04:50:51.537Z,16.30
2022-11-14T04:53:21.949Z,17.93
2022-11-14T04:55:53.308Z,16.23
2022-11-14T04:58:22.381Z,16.43
2022-11-14T05:00:50.175Z,16.43
2022-11-14T05:03:17.955Z,14.07
2022-11-14T05:05:48.278Z,16.07
2022-11-14T05:08:17.652Z,16.33
2022-11-14T05:10:46.780Z,15.73
2022-11-14T05:13:14.617Z,16.07
2022-11-14T05:15:43.788Z,16.50
2022-11-14T05:18:13.809Z,16.93
2022-11-14T05:20:43.528Z,16.70
2022-11-14T05:23:20.538Z,16.30
2022-11-14T05:25:53.531Z,15.83
2022-11-14T05:28:26.621Z,15.10
2022-11-14T05:31:01.852Z,16.00
2022-11-14T05:33:32.896Z,15.87
2022-11-14T05:36:05.590Z,15.03
2022-11-14T05:40:56.714Z,15.40
2022-11-14T05:43:24.877Z,16.20
2022-11-14T05:45:52.689Z,15.87
2022-11-14T05:48:20.433Z,15.03
2022-11-14T05:53:21.688Z,15.67
2022-11-14T05:55:49.418Z,15.57
2022-11-14T05:58:19.782Z,15.00
2022-11-14T06:00:53.491Z,14.93
2022-11-14T06:03:21.842Z,14.53
2022-11-14T06:05:49.612Z,15.07
2022-11-14T06:08:17.361Z,15.07
2022-11-14T06:13:00.986Z,14.47
2022-11-14T06:17:46.942Z,14.10
2022-11-14T06:20:15.705Z,15.30
2022-11-14T06:22:43.497Z,15.37
2022-11-14T06:25:11.488Z,14.77
2022-11-14T06:29:51.000Z,15.23
2022-11-14T06:32:18.760Z,16.53
2022-11-14T06:34:52.629Z,16.13
2022-11-14T06:37:20.493Z,15.60
2022-11-14T06:39:48.585Z,15.47
2022-11-14T06:44:50.144Z,15.53
2022-11-14T06:47:17.956Z,14.27
2022-11-14T06:49:45.705Z,14.47
2022-11-14T06:52:13.468Z,15.13
2022-11-14T06:56:53.558Z,14.80
2022-11-14T06:59:21.307Z,13.63
2022-11-14T07:01:58.251Z,17.23
2022-11-14T07:04:28.860Z,15.87
2022-11-14T07:06:56.659Z,13.93
2022-11-14T07:09:26.917Z,14.83
2022-11-14T07:11:59.938Z,15.30
2022-11-14T07:14:28.924Z,15.13
2022-11-14T07:16:56.847Z,15.17
2022-11-14T07:19:24.610Z,15.67
2022-11-14T07:22:08.730Z,15.93
2022-11-14T07:24:46.564Z,14.80
2022-11-14T07:27:17.891Z,14.87
2022-11-14T07:29:47.800Z,14.70
2022-11-14T07:32:15.554Z,14.47
2022-11-14T07:34:43.753Z,13.13
2022-11-14T07:37:11.644Z,13.83
2022-11-14T07:39:39.466Z,14.63
2022-11-14T07:44:23.910Z,14.27
2022-11-14T07:46:51.932Z,14.17
2022-11-14T07:49:19.661Z,14.23
2022-11-14T07:51:47.413Z,15.50
2022-11-14T07:54:17.602Z,15.63
2022-11-14T07:56:45.386Z,14.53
2022-11-14T08:01:25.755Z,13.67
2022-11-14T08:03:55.877Z,14.73
2022-11-14T08:06:30.280Z,16.63
2022-11-14T08:08:58.076Z,15.00
2022-11-14T08:11:42.870Z,15.20
2022-11-14T08:14:10.731Z,14.63
2022-11-14T08:16:39.922Z,16.90
2022-11-14T08:19:10.485Z,15.33
2022-11-14T08:21:40.215Z,14.40
2022-11-14T08:24:11.431Z,14.13
2022-11-14T08:26:39.809Z,16.83
2022-11-14T08:31:24.901Z,14.07
2022-11-14T08:33:53.088Z,15.60
2022-11-14T08:36:32.949Z,14.57
2022-11-14T08:39:02.211Z,15.47
2022-11-14T08:41:30.205Z,14.43
2022-11-14T08:44:00.847Z,15.83
2022-11-14T08:46:32.969Z,15.23
2022-11-14T08:49:00.710Z,15.87
2022-11-14T08:51:30.611Z,14.67
2022-11-14T08:53:58.745Z,15.47
2022-11-14T08:56:26.537Z,16.50
2022-11-14T08:58:57.394Z,15.60
2022-11-14T09:01:25.100Z,14.87
2022-11-14T09:03:59.429Z,14.93
2022-11-14T09:06:27.864Z,14.83
2022-11-14T09:08:58.925Z,14.00
2022-11-14T09:11:27.764Z,14.67
2022-11-14T09:13:55.578Z,14.40
2022-11-14T09:16:23.455Z,14.03
2022-11-14T09:18:51.291Z,14.13
2022-11-14T09:28:00.303Z,13.07
2022-11-14T09:30:30.526Z,13.03
2022-11-14T09:33:02.086Z,13.63
2022-11-14T09:35:32.550Z,12.30
2022-11-14T09:38:01.402Z,12.57
2022-11-14T09:40:31.567Z,12.23
2022-11-14T09:43:14.677Z,13.20
2022-11-14T09:45:51.887Z,12.13
2022-11-14T09:48:25.706Z,12.53
2022-11-14T09:51:06.596Z,11.73
2022-11-14T09:53:41.621Z,11.57
2022-11-14T09:56:16.160Z,11.77
2022-11-14T09:58:45.345Z,11.63
2022-11-14T10:03:42.615Z,12.43
2022-11-14T10:08:52.311Z,12.43
2022-11-14T10:16:52.134Z,13.47
2022-11-14T10:19:27.218Z,12.67
2022-11-14T10:22:07.239Z,12.07
2022-11-14T10:24:52.643Z,12.97
2022-11-14T10:27:24.612Z,12.37
2022-11-14T10:32:15.453Z,12.47
2022-11-14T10:34:51.556Z,11.97
2022-11-14T10:37:28.378Z,13.17
2022-11-14T10:40:02.571Z,12.50
2022-11-14T10:45:25.730Z,12.23
2022-11-14T10:47:58.551Z,12.83
2022-11-14T10:50:33.512Z,11.63
2022-11-14T10:53:05.856Z,12.77
2022-11-14T10:58:22.395Z,12.33
2022-11-14T11:00:51.645Z,12.47
2022-11-14T11:03:19.517Z,12.47
2022-11-14T11:05:51.311Z,12.40
2022-11-14T11:08:43.741Z,12.93
2022-11-14T11:11:31.937Z,13.37
2022-11-14T11:14:07.171Z,12.23
2022-11-14T11:16:36.307Z,12.53
2022-11-14T11:19:16.045Z,12.77
2022-11-14T11:42:00.846Z,12.80
2022-11-14T11:46:33.600Z,13.00
2022-11-14T11:53:08.002Z,12.67
2022-11-14T11:55:40.985Z,12.30
2022-11-14T12:06:15.268Z,13.23
2022-11-14T12:11:28.006Z,13.10
2022-11-14T12:14:21.471Z,12.93
2022-11-14T12:17:34.923Z,12.80
2022-11-14T12:20:44.283Z,12.60
2022-11-14T12:23:38.726Z,12.20
2022-11-14T12:34:00.373Z,19.40
2022-11-14T12:39:35.288Z,19.53
2022-11-14T12:47:22.099Z,18.70
2022-11-14T12:50:06.181Z,17.67
2022-11-14T12:52:57.391Z,18.70
2022-11-14T12:59:09.688Z,17.83
2022-11-14T13:01:56.131Z,17.17
2022-11-14T13:04:34.553Z,17.23
2022-11-14T13:07:20.436Z,17.80
2022-11-14T13:10:16.599Z,17.60
2022-11-14T13:13:15.821Z,17.50
2022-11-14T13:16:48.788Z,16.93
2022-11-14T13:19:39.798Z,17.30
2022-11-14T13:22:40.982Z,17.63
2022-11-14T13:25:23.761Z,16.57
2022-11-14T13:28:57.921Z,16.93
2022-11-14T13:31:26.796Z,16.60
2022-11-14T13:33:58.980Z,17.10
2022-11-14T13:39:21.313Z,17.60
2022-11-14T13:43:13.702Z,17.57
2022-11-14T13:45:59.365Z,17.40
2022-11-14T13:49:05.427Z,17.63
2022-11-14T13:51:43.242Z,17.77
2022-11-14T13:55:47.243Z,18.67
2022-11-14T13:58:30.204Z,18.33
2022-11-14T14:01:12.898Z,18.47
2022-11-14T14:03:55.331Z,18.80
2022-11-14T14:06:39.612Z,19.50
2022-11-14T14:11:00.682Z,19.40
2022-11-14T14:13:43.353Z,19.47
2022-11-14T14:16:17.529Z,21.83
2022-11-14T14:18:55.223Z,20.70
2022-11-14T14:21:36.935Z,23.70
2022-11-14T14:24:12.935Z,23.20
2022-11-14T14:27:47.196Z,21.97
2022-11-14T14:30:18.834Z,24.20
2022-11-14T14:33:03.665Z,23.40
2022-11-14T14:35:38.838Z,23.57
2022-11-14T14:38:13.208Z,23.27
2022-11-14T14:40:42.983Z,23.27
2022-11-14T14:44:28.502Z,22.40
2022-11-14T14:49:40.763Z,23.37
2022-11-14T15:06:22.226Z,23.43
2022-11-14T15:08:50.509Z,22.47
2022-11-14T15:18:01.508Z,22.57
2022-11-14T15:21:27.175Z,21.03
2022-11-14T15:24:03.830Z,22.00
2022-11-14T15:26:32.455Z,20.63
2022-11-14T15:29:07.975Z,20.60
2022-11-14T15:31:37.178Z,21.43
2022-11-14T15:34:07.942Z,19.87
2022-11-14T15:36:37.031Z,20.13
2022-11-14T15:39:24.684Z,21.53
2022-11-14T15:42:13.365Z,20.77
2022-11-14T15:46:57.543Z,21.63
2022-11-14T15:49:28.197Z,19.87
2022-11-14T15:52:01.801Z,21.03
2022-11-14T15:58:29.183Z,21.70
2022-11-14T16:00:59.690Z,20.93
2022-11-14T16:06:05.939Z,21.63
2022-11-14T16:08:33.694Z,19.97
2022-11-14T16:11:01.433Z,21.60
2022-11-14T16:13:29.449Z,20.87
2022-11-14T16:15:57.515Z,21.37
2022-11-14T16:18:25.271Z,21.70
2022-11-14T16:20:53.108Z,23.63
2022-11-14T16:23:22.237Z,24.07
2022-11-14T16:27:45.489Z,21.17
2022-11-14T16:30:54.140Z,20.97
2022-11-14T16:33:22.006Z,21.90
2022-11-14T16:35:49.795Z,21.37
2022-11-14T16:38:19.194Z,21.60
2022-11-14T16:40:47.099Z,20.63
2022-11-14T16:43:15.873Z,20.03
2022-11-14T16:46:33.533Z,20.90
2022-11-14T16:49:01.366Z,19.77
2022-11-14T16:54:19.343Z,21.37
2022-11-14T16:56:47.752Z,20.07
2022-11-14T16:59:15.485Z,20.77
2022-11-14T17:01:45.920Z,27.10
2022-11-14T17:04:17.774Z,30.90
2022-11-14T17:06:48.059Z,20.73
2022-11-14T17:09:15.861Z,20.47
2022-11-14T17:11:44.625Z,22.23
2022-11-14T17:15:38.895Z,20.23
2022-11-14T17:18:07.630Z,20.57
2022-11-14T17:20:37.499Z,20.57
2022-11-14T17:23:07.219Z,19.93
2022-11-14T17:25:35.020Z,19.33
2022-11-14T17:28:02.737Z,21.13
2022-11-14T17:30:30.474Z,21.90
2022-11-14T17:35:22.031Z,19.43
2022-11-14T17:40:28.277Z,20.07
2022-11-14T17:42:56.021Z,18.97
2022-11-14T17:45:26.423Z,18.63
2022-11-14T17:55:46.743Z,21.00
2022-11-14T18:03:50.715Z,19.63
2022-11-14T18:13:49.480Z,20.70
2022-11-14T18:16:20.404Z,20.13
2022-11-14T18:18:48.636Z,20.13
2022-11-14T18:21:26.913Z,20.13
2022-11-14T18:24:15.011Z,21.20
2022-11-14T18:26:44.789Z,20.33
2022-11-14T18:29:13.711Z,20.00
2022-11-14T18:31:41.478Z,20.33
2022-11-14T18:42:25.597Z,18.57
2022-11-14T18:46:41.169Z,18.23
2022-11-14T18:51:29.168Z,15.90
2022-11-14T18:59:17.649Z,12.90
2022-11-14T19:10:14.650Z,11.53
2022-11-14T19:24:04.343Z,12.67
2022-11-14T19:33:28.712Z,13.63
2022-11-14T19:55:09.207Z,11.00
2022-11-14T19:57:36.979Z,11.67
2022-11-14T20:00:05.716Z,12.00
2022-11-14T20:02:33.455Z,11.47
2022-11-14T20:07:39.710Z,12.90
2022-11-14T20:11:20.135Z,12.27
2022-11-14T20:27:11.344Z,13.03
2022-11-14T20:55:38.178Z,12.83
2022-11-14T20:58:06.399Z,11.17
2022-11-14T21:00:34.160Z,11.10
2022-11-14T21:03:01.990Z,10.97
2022-11-14T21:05:29.744Z,10.47
2022-11-14T21:08:00.085Z,10.50
2022-11-14T21:10:56.986Z,10.87
2022-11-14T21:13:43.754Z,12.30
2022-11-14T21:16:13.090Z,12.43
2022-11-14T21:23:38.687Z,14.23
2022-11-14T21:26:08.369Z,14.17
2022-11-14T21:31:17.043Z,14.33
2022-11-14T21:33:45.165Z,13.27
2022-11-14T21:36:43.370Z,13.60
2022-11-14T21:50:30.541Z,15.67
2022-11-14T22:01:45.134Z,14.90
2022-11-14T22:23:46.422Z,14.03
2022-11-14T23:16:51.546Z,15.17
2022-11-14T23:19:21.966Z,13.53
2022-11-14T23:32:03.740Z,14.57
2022-11-14T23:49:51.769Z,15.83
2022-11-14T23:52:19.561Z,16.13
2022-11-14T23:54:47.318Z,15.80
